createdAt,value
2016-06-23T00:00:05.299Z,93.58
2016-06-23T00:01:04.623Z,93.29
2016-06-23T00:02:04.624Z,93.87
2016-06-23T00:03:05.209Z,94.06
2016-06-23T00:04:04.599Z,94.16
2016-06-23T00:05:05.190Z,94.06
2016-06-23T00:06:04.567Z,93.96
2016-06-23T00:07:04.567Z,94.16
2016-06-23T00:08:04.558Z,94.26
2016-06-23T00:09:05.348Z,94.26
2016-06-23T00:10:04.539Z,94.35
2016-06-23T00:11:05.140Z,94.26
2016-06-23T00:12:05.121Z,94.26
2016-06-23T00:13:04.495Z,94.35
2016-06-23T00:14:05.108Z,93.96
2016-06-23T00:15:05.089Z,94.26
2016-06-23T00:16:05.076Z,94.26
2016-06-23T00:17:05.064Z,94.16
2016-06-23T00:18:04.441Z,94.06
2016-06-23T00:19:05.042Z,94.16
2016-06-23T00:20:05.038Z,94.16
2016-06-23T00:21:05.025Z,94.06
2016-06-23T00:22:05.033Z,94.35
2016-06-23T00:23:05.002Z,94.16
2016-06-23T00:24:04.998Z,94.16
2016-06-23T00:25:04.373Z,94.45
2016-06-23T00:26:04.971Z,94.26
2016-06-23T00:27:04.967Z,94.26
2016-06-23T00:28:04.950Z,94.26
2016-06-23T00:29:04.339Z,94.26
2016-06-23T00:30:04.958Z,94.26
2016-06-23T00:31:04.929Z,94.06
2016-06-23T00:32:04.920Z,94.16
2016-06-23T00:33:04.285Z,94.54
2016-06-23T00:34:04.902Z,94.45
2016-06-23T00:35:04.264Z,94.64
2016-06-23T00:36:04.253Z,94.45
2016-06-23T00:37:04.242Z,94.35
2016-06-23T00:38:04.238Z,94.45
2016-06-23T00:39:04.232Z,94.73
2016-06-23T00:40:04.294Z,95.03
2016-06-23T00:41:04.813Z,95.21
2016-06-23T00:42:04.818Z,95.12
2016-06-23T00:43:04.186Z,94.64
2016-06-23T00:44:04.179Z,94.93
2016-06-23T00:45:04.179Z,95.5
2016-06-23T00:46:04.768Z,95.5
2016-06-23T00:47:04.141Z,94.88
2016-06-23T00:48:04.763Z,94.93
2016-06-23T00:49:04.731Z,94.83
2016-06-23T00:50:04.739Z,94.83
2016-06-23T00:51:04.717Z,94.98
2016-06-23T00:52:04.700Z,95.6
2016-06-23T00:53:04.119Z,95.4
2016-06-23T00:54:04.073Z,95.5
2016-06-23T00:55:04.666Z,94.83
2016-06-23T00:56:04.665Z,94.78
2016-06-23T00:57:04.039Z,95.17
2016-06-23T00:58:04.641Z,95.26
2016-06-23T00:59:04.628Z,95.4
2016-06-23T01:00:04.023Z,95.55
2016-06-23T01:01:03.991Z,95.36
2016-06-23T01:02:04.599Z,95.07
2016-06-23T01:03:04.632Z,95.31
2016-06-23T01:04:03.966Z,95.6
2016-06-23T01:05:03.948Z,95.6
2016-06-23T01:06:04.565Z,95.36
2016-06-23T01:07:03.933Z,95.45
2016-06-23T01:08:04.094Z,95.26
2016-06-23T01:09:04.586Z,95.45
2016-06-23T01:10:04.563Z,95.75
2016-06-23T01:11:04.536Z,95.26
2016-06-23T01:12:04.659Z,95.26
2016-06-23T01:13:04.637Z,95.55
2016-06-23T01:14:04.480Z,95.26
2016-06-23T01:15:03.849Z,95.45
2016-06-23T01:16:04.443Z,95.17
2016-06-23T01:17:03.830Z,95.55
2016-06-23T01:18:04.434Z,95.75
2016-06-23T01:19:04.419Z,95.65
2016-06-23T01:20:04.407Z,95.94
2016-06-23T01:21:04.416Z,96.13
2016-06-23T01:22:04.383Z,95.94
2016-06-23T01:23:04.381Z,96.61
2016-06-23T01:24:04.368Z,96.32
2016-06-23T01:25:04.353Z,96.61
2016-06-23T01:26:04.391Z,96.51
2016-06-23T01:27:03.730Z,96.7
2016-06-23T01:28:04.389Z,96.13
2016-06-23T01:29:03.703Z,96.61
2016-06-23T01:30:03.687Z,96.61
2016-06-23T01:31:04.280Z,96.32
2016-06-23T01:32:04.295Z,96.51
2016-06-23T01:33:03.667Z,96.61
2016-06-23T01:34:04.258Z,96.61
2016-06-23T01:35:04.279Z,96.89
2016-06-23T01:36:04.242Z,96.61
2016-06-23T01:37:04.225Z,96.99
2016-06-23T01:38:04.215Z,96.7
2016-06-23T01:39:04.202Z,96.7
2016-06-23T01:40:03.582Z,96.42
2016-06-23T01:41:04.185Z,96.61
2016-06-23T01:42:04.174Z,96.8
2016-06-23T01:43:03.550Z,96.42
2016-06-23T01:44:03.544Z,96.51
2016-06-23T01:45:03.531Z,96.42
2016-06-23T01:46:04.130Z,96.51
2016-06-23T01:47:04.118Z,96.51
2016-06-23T01:48:03.498Z,96.42
2016-06-23T01:49:03.482Z,96.89
2016-06-23T01:50:04.081Z,96.42
2016-06-23T01:51:03.458Z,96.61
2016-06-23T01:52:04.062Z,96.42
2016-06-23T01:53:03.440Z,96.32
2016-06-23T01:54:04.043Z,96.22
2016-06-23T01:55:03.417Z,96.51
2016-06-23T01:56:03.429Z,96.7
2016-06-23T01:57:04.010Z,96.8
2016-06-23T01:58:04.005Z,96.8
2016-06-23T01:59:03.370Z,96.8
2016-06-23T02:00:03.365Z,96.51
2016-06-23T02:01:03.964Z,96.7
2016-06-23T02:02:03.345Z,96.7
2016-06-23T02:03:03.338Z,96.7
2016-06-23T02:04:03.944Z,96.51
2016-06-23T02:05:03.323Z,96.61
2016-06-23T02:06:03.306Z,96.8
2016-06-23T02:07:03.901Z,96.89
2016-06-23T02:08:03.278Z,97.19
2016-06-23T02:09:03.475Z,96.7
2016-06-23T02:10:03.255Z,97.19
2016-06-23T02:11:03.250Z,97.86
2016-06-23T02:12:03.855Z,97.57
2016-06-23T02:13:03.849Z,97.52
2016-06-23T02:14:03.837Z,97.86
2016-06-23T02:15:03.818Z,97.91
2016-06-23T02:16:03.808Z,98
2016-06-23T02:17:03.806Z,98.48
2016-06-23T02:18:03.794Z,98.38
2016-06-23T02:19:03.165Z,98.58
2016-06-23T02:20:03.758Z,98.48
2016-06-23T02:21:03.753Z,98.14
2016-06-23T02:22:03.122Z,98.38
2016-06-23T02:23:03.127Z,98.29
2016-06-23T02:24:03.111Z,98.48
2016-06-23T02:25:03.708Z,99.01
2016-06-23T02:26:03.710Z,98.77
2016-06-23T02:27:03.125Z,98.58
2016-06-23T02:28:03.673Z,98.58
2016-06-23T02:29:03.056Z,98.77
2016-06-23T02:30:03.050Z,98.58
2016-06-23T02:31:03.639Z,98.48
2016-06-23T02:32:03.650Z,98.96
2016-06-23T02:33:03.010Z,99.54
2016-06-23T02:34:03.002Z,98.67
2016-06-23T02:35:03.606Z,98.86
2016-06-23T02:36:02.975Z,99.54
2016-06-23T02:37:02.962Z,99.34
2016-06-23T02:38:02.956Z,98.58
2016-06-23T02:39:03.569Z,99.25
2016-06-23T02:40:02.924Z,99.44
2016-06-23T02:41:03.539Z,99.44
2016-06-23T02:42:02.914Z,99.92
2016-06-23T02:43:03.511Z,99.99
2016-06-23T02:44:02.895Z,99.92
2016-06-23T02:45:02.879Z,99.34
2016-06-23T02:46:03.479Z,99.99
2016-06-23T02:47:02.904Z,99.99
2016-06-23T02:48:02.852Z,99.99
2016-06-23T02:49:03.445Z,99.99
2016-06-23T02:50:03.441Z,99.99
2016-06-23T02:51:02.811Z,99.99
2016-06-23T02:52:02.810Z,99.87
2016-06-23T02:53:02.795Z,99.99
2016-06-23T02:54:03.398Z,99.99
2016-06-23T02:55:02.824Z,99.97
2016-06-23T02:56:02.779Z,99.99
2016-06-23T02:57:02.750Z,99.78
2016-06-23T02:58:03.347Z,99.58
2016-06-23T02:59:03.342Z,99.87
2016-06-23T03:00:02.739Z,99.99
2016-06-23T03:01:02.699Z,99.49
2016-06-23T03:02:02.701Z,99.78
2016-06-23T03:03:02.737Z,99.3
2016-06-23T03:04:02.679Z,99.3
2016-06-23T03:05:03.287Z,99.49
2016-06-23T03:06:02.677Z,99.49
2016-06-23T03:07:02.638Z,99.58
2016-06-23T03:08:03.240Z,99.49
2016-06-23T03:09:03.226Z,99.58
2016-06-23T03:10:03.216Z,99.49
2016-06-23T03:11:03.263Z,99.49
2016-06-23T03:12:03.199Z,99.49
2016-06-23T03:13:03.257Z,99.2
2016-06-23T03:14:02.570Z,99.58
2016-06-23T03:15:02.552Z,99.68
2016-06-23T03:16:03.157Z,99.68
2016-06-23T03:17:03.145Z,98.82
2016-06-23T03:18:02.522Z,98.72
2016-06-23T03:19:03.143Z,98.72
2016-06-23T03:20:03.119Z,99.3
2016-06-23T03:21:02.485Z,99.4
2016-06-23T03:22:03.107Z,99.58
2016-06-23T03:23:02.470Z,99.1
2016-06-23T03:24:03.065Z,99.3
2016-06-23T03:25:02.447Z,99.4
2016-06-23T03:26:02.435Z,98.82
2016-06-23T03:27:02.417Z,98.63
2016-06-23T03:28:03.029Z,99.01
2016-06-23T03:29:02.408Z,98.63
2016-06-23T03:30:02.389Z,98.72
2016-06-23T03:31:02.407Z,98.63
2016-06-23T03:32:02.380Z,98.72
2016-06-23T03:33:02.965Z,98.63
2016-06-23T03:34:02.344Z,98.82
2016-06-23T03:35:02.343Z,98.82
2016-06-23T03:36:02.932Z,98.91
2016-06-23T03:37:02.322Z,99.58
2016-06-23T03:38:02.327Z,98.82
2016-06-23T03:39:02.293Z,99.58
2016-06-23T03:40:02.325Z,99.49
2016-06-23T03:41:02.893Z,99.3
2016-06-23T03:42:02.262Z,99.2
2016-06-23T03:43:02.251Z,99.49
2016-06-23T03:44:02.863Z,99.06
2016-06-23T03:45:02.840Z,99.4
2016-06-23T03:46:02.842Z,99.15
2016-06-23T03:47:02.820Z,99.06
2016-06-23T03:48:02.203Z,99.35
2016-06-23T03:49:02.812Z,99.44
2016-06-23T03:50:02.173Z,99.63
2016-06-23T03:51:02.174Z,99.3
2016-06-23T03:52:02.155Z,99.25
2016-06-23T03:53:02.147Z,99.35
2016-06-23T03:54:02.135Z,99.54
2016-06-23T03:55:02.123Z,98.96
2016-06-23T03:56:02.749Z,98.86
2016-06-23T03:57:02.715Z,98.77
2016-06-23T03:58:02.703Z,98.29
2016-06-23T03:59:02.088Z,98.19
2016-06-23T04:00:02.071Z,98.39
2016-06-23T04:01:02.061Z,98
2016-06-23T04:02:02.682Z,97.91
2016-06-23T04:03:02.037Z,98
2016-06-23T04:04:02.659Z,97.71
2016-06-23T04:05:02.023Z,98.1
2016-06-23T04:06:02.648Z,98.19
2016-06-23T04:07:02.608Z,97.42
2016-06-23T04:08:02.601Z,97.62
2016-06-23T04:09:02.589Z,97.62
2016-06-23T04:10:02.580Z,97.62
2016-06-23T04:11:02.566Z,97.91
2016-06-23T04:12:01.953Z,97.62
2016-06-23T04:13:01.940Z,97.86
2016-06-23T04:14:01.931Z,97.62
2016-06-23T04:15:02.531Z,97.24
2016-06-23T04:16:02.523Z,98.05
2016-06-23T04:17:01.896Z,97.57
2016-06-23T04:18:01.880Z,97.38
2016-06-23T04:19:02.494Z,98.05
2016-06-23T04:20:02.476Z,97.67
2016-06-23T04:21:01.845Z,97.67
2016-06-23T04:22:02.466Z,97.28
2016-06-23T04:23:02.455Z,96.99
2016-06-23T04:24:02.425Z,96.8
2016-06-23T04:25:02.426Z,97.09
2016-06-23T04:26:01.801Z,96.99
2016-06-23T04:27:01.797Z,97.04
2016-06-23T04:28:01.785Z,97.19
2016-06-23T04:29:02.379Z,97.62
2016-06-23T04:30:01.766Z,97.09
2016-06-23T04:31:01.755Z,97.42
2016-06-23T04:32:01.735Z,97.14
2016-06-23T04:33:01.732Z,97.57
2016-06-23T04:34:02.329Z,97.86
2016-06-23T04:35:02.323Z,97.57
2016-06-23T04:36:01.703Z,97.76
2016-06-23T04:37:02.301Z,97.67
2016-06-23T04:38:02.291Z,97.57
2016-06-23T04:39:02.280Z,97.76
2016-06-23T04:40:01.663Z,98.24
2016-06-23T04:41:02.261Z,97.86
2016-06-23T04:42:01.639Z,98.34
2016-06-23T04:43:02.238Z,98.24
2016-06-23T04:44:02.231Z,97.76
2016-06-23T04:45:02.223Z,97.38
2016-06-23T04:46:01.595Z,96.51
2016-06-23T04:47:01.583Z,96.42
2016-06-23T04:48:01.576Z,96.13
2016-06-23T04:49:02.173Z,96.22
2016-06-23T04:50:02.170Z,96.32
2016-06-23T04:51:01.721Z,95.36
2016-06-23T04:52:02.150Z,95.65
2016-06-23T04:53:01.527Z,95.26
2016-06-23T04:54:02.130Z,95.65
2016-06-23T04:55:02.110Z,95.65
2016-06-23T04:56:02.112Z,95.55
2016-06-23T04:57:01.479Z,95.31
2016-06-23T04:58:01.471Z,95.4
2016-06-23T04:59:02.091Z,95.31
2016-06-23T05:00:01.519Z,94.64
2016-06-23T05:01:02.056Z,95.7
2016-06-23T05:02:02.046Z,95.26
2016-06-23T05:03:02.039Z,95.7
2016-06-23T05:04:01.421Z,95.6
2016-06-23T05:05:02.017Z,95.02
2016-06-23T05:06:02.012Z,95.02
2016-06-23T05:07:01.385Z,95.7
2016-06-23T05:08:01.989Z,94.83
2016-06-23T05:09:01.976Z,95.7
2016-06-23T05:10:01.970Z,95.79
2016-06-23T05:11:01.958Z,94.92
2016-06-23T05:12:01.330Z,95.12
2016-06-23T05:13:01.339Z,94.83
2016-06-23T05:14:01.926Z,95.02
2016-06-23T05:15:01.918Z,94.15
2016-06-23T05:16:01.299Z,94.25
2016-06-23T05:17:01.281Z,94.4
2016-06-23T05:18:01.289Z,94.59
2016-06-23T05:19:01.875Z,94.68
2016-06-23T05:20:01.871Z,94.4
2016-06-23T05:21:01.858Z,94.97
2016-06-23T05:22:01.245Z,94.87
2016-06-23T05:23:01.227Z,94.78
2016-06-23T05:24:01.211Z,94.3
2016-06-23T05:25:01.824Z,94.4
2016-06-23T05:26:01.814Z,94.59
2016-06-23T05:27:01.181Z,94.1
2016-06-23T05:28:01.175Z,94.2
2016-06-23T05:29:01.787Z,94.01
2016-06-23T05:30:01.150Z,94.2
2016-06-23T05:31:01.148Z,94.01
2016-06-23T05:32:01.766Z,94.01
2016-06-23T05:33:01.746Z,94.2
2016-06-23T05:34:01.737Z,94.4
2016-06-23T05:35:01.115Z,94.3
2016-06-23T05:36:01.715Z,94.1
2016-06-23T05:37:01.706Z,94.01
2016-06-23T05:38:01.699Z,94.01
2016-06-23T05:39:01.059Z,93.91
2016-06-23T05:40:01.063Z,93.82
2016-06-23T05:41:01.046Z,94.1
2016-06-23T05:42:01.667Z,93.62
2016-06-23T05:43:01.675Z,93.62
2016-06-23T05:44:01.638Z,93.62
2016-06-23T05:45:01.008Z,93.96
2016-06-23T05:46:01.003Z,94.15
2016-06-23T05:47:01.617Z,93.96
2016-06-23T05:48:00.985Z,93.96
2016-06-23T05:49:01.588Z,93.87
2016-06-23T05:50:00.957Z,93.19
2016-06-23T05:51:00.965Z,93
2016-06-23T05:52:00.963Z,92.9
2016-06-23T05:53:00.934Z,93.77
2016-06-23T05:54:00.924Z,93.67
2016-06-23T05:55:00.913Z,93.87
2016-06-23T05:56:01.525Z,93.67
2016-06-23T05:57:01.516Z,93.96
2016-06-23T05:58:00.886Z,94.06
2016-06-23T05:59:00.880Z,93.67
2016-06-23T06:00:00.869Z,93.29
2016-06-23T06:01:01.473Z,92.9
2016-06-23T06:02:00.861Z,93.77
2016-06-23T06:03:01.454Z,93.81
2016-06-23T06:04:01.446Z,93.43
2016-06-23T06:05:01.445Z,93.81
2016-06-23T06:06:01.428Z,93.52
2016-06-23T06:07:00.794Z,93.81
2016-06-23T06:08:01.407Z,93.52
2016-06-23T06:09:01.400Z,92.94
2016-06-23T06:10:00.983Z,92.47
2016-06-23T06:11:01.375Z,93.24
2016-06-23T06:12:01.371Z,92.85
2016-06-23T06:13:00.747Z,92.08
2016-06-23T06:14:01.354Z,92.08
2016-06-23T06:15:00.726Z,92.37
2016-06-23T06:16:01.331Z,92.94
2016-06-23T06:17:00.711Z,93.04
2016-06-23T06:18:01.318Z,93.33
2016-06-23T06:19:00.691Z,93.52
2016-06-23T06:20:01.305Z,92.85
2016-06-23T06:21:00.676Z,91.93
2016-06-23T06:22:00.674Z,92.03
2016-06-23T06:23:00.661Z,92.32
2016-06-23T06:24:01.274Z,91.64
2016-06-23T06:25:00.650Z,90.97
2016-06-23T06:26:00.631Z,90.44
2016-06-23T06:27:00.626Z,88.84
2016-06-23T06:28:01.271Z,88.75
2016-06-23T06:29:01.235Z,88.75
2016-06-23T06:30:00.599Z,88.89
2016-06-23T06:31:01.200Z,89.23
2016-06-23T06:32:01.189Z,89.13
2016-06-23T06:33:01.185Z,89.61
2016-06-23T06:34:01.170Z,88.99
2016-06-23T06:35:01.171Z,89.18
2016-06-23T06:36:01.160Z,88.22
2016-06-23T06:37:01.168Z,87.83
2016-06-23T06:38:01.148Z,88.17
2016-06-23T06:39:01.137Z,88.51
2016-06-23T06:40:01.124Z,88.84
2016-06-23T06:41:01.115Z,88.84
2016-06-23T06:42:01.114Z,89.71
2016-06-23T06:43:01.109Z,89.03
2016-06-23T06:44:00.485Z,88.55
2016-06-23T06:45:00.472Z,87.88
2016-06-23T06:46:00.470Z,88.07
2016-06-23T06:47:00.453Z,87.01
2016-06-23T06:48:01.067Z,86.72
2016-06-23T06:49:01.073Z,87.01
2016-06-23T06:50:00.431Z,87.78
2016-06-23T06:51:00.433Z,87.3
2016-06-23T06:52:01.024Z,87.05
2016-06-23T06:53:01.026Z,86.57
2016-06-23T06:54:00.400Z,83.08
2016-06-23T06:55:01.025Z,82.31
2016-06-23T06:56:00.390Z,81.09
2016-06-23T06:57:00.383Z,78.71
2016-06-23T06:58:01.011Z,78.27
2016-06-23T06:59:00.991Z,77.63
2016-06-23T07:00:00.370Z,76.56
2016-06-23T07:01:00.383Z,75.73
2016-06-23T07:02:00.953Z,76.29
2016-06-23T07:03:00.946Z,73.28
2016-06-23T07:04:00.323Z,72.93
2016-06-23T07:05:00.931Z,74
2016-06-23T07:06:00.317Z,75.32
2016-06-23T07:07:00.309Z,76.1
2016-06-23T07:08:00.915Z,74.99
2016-06-23T07:09:00.903Z,76.6
2016-06-23T07:10:00.281Z,76.7
2016-06-23T07:11:00.285Z,76.99
2016-06-23T07:12:00.878Z,77.82
2016-06-23T07:13:00.862Z,77.05
2016-06-23T07:14:00.866Z,77.44
2016-06-23T07:15:00.858Z,76.66
2016-06-23T07:16:00.241Z,75.34
2016-06-23T07:17:00.230Z,72.89
2016-06-23T07:18:00.215Z,70.15
2016-06-23T07:19:00.842Z,69.93
2016-06-23T07:20:00.814Z,68.99
2016-06-23T07:21:00.819Z,66.89
2016-06-23T07:22:00.835Z,67.6
2016-06-23T07:23:00.190Z,66.47
2016-06-23T07:24:00.180Z,64.36
2016-06-23T07:25:00.175Z,62.63
2016-06-23T07:26:00.785Z,63.22
2016-06-23T07:27:00.790Z,64.2
2016-06-23T07:28:00.160Z,61.79
2016-06-23T07:29:00.805Z,60.03
2016-06-23T07:30:00.154Z,61.43
2016-06-23T07:31:00.147Z,58.89
2016-06-23T07:32:00.742Z,60.46
2016-06-23T07:33:00.131Z,60.29
2016-06-23T07:34:00.141Z,59.31
2016-06-23T07:35:00.772Z,56.05
2016-06-23T07:36:00.128Z,54.52
2016-06-23T07:37:00.747Z,53.76
2016-06-23T07:38:00.734Z,52.51
2016-06-23T07:39:00.720Z,52.34
2016-06-23T07:40:00.106Z,51.46
2016-06-23T07:41:00.738Z,51.76
2016-06-23T07:42:00.723Z,51.76
2016-06-23T07:43:00.734Z,51.49
2016-06-23T07:44:00.726Z,51.81
2016-06-23T07:45:00.110Z,50.34
2016-06-23T07:46:00.710Z,49.95
2016-06-23T07:47:00.101Z,51.42
2016-06-23T07:48:00.095Z,51.1
2016-06-23T07:49:00.103Z,51.86
2016-06-23T07:50:00.706Z,52.15
2016-06-23T07:51:00.708Z,52.25
2016-06-23T07:52:00.718Z,51.98
2016-06-23T07:53:00.089Z,51.78
2016-06-23T07:54:00.116Z,51.78
2016-06-23T07:55:00.722Z,51.59
2016-06-23T07:56:00.722Z,51.51
2016-06-23T07:57:00.729Z,49.38
2016-06-23T07:58:00.098Z,48.5
2016-06-23T07:59:00.720Z,49.29
2016-06-23T08:00:00.724Z,49.65
2016-06-23T08:01:00.094Z,50.83
2016-06-23T08:02:00.705Z,49.87
2016-06-23T08:03:00.727Z,48.63
2016-06-23T08:04:00.104Z,49.97
2016-06-23T08:05:00.713Z,48.9
2016-06-23T08:06:00.724Z,49.58
2016-06-23T08:07:00.710Z,48.8
2016-06-23T08:08:00.711Z,48.72
2016-06-23T08:09:00.895Z,49.41
2016-06-23T08:10:00.310Z,48.92
2016-06-23T08:11:00.722Z,47.39
2016-06-23T08:12:00.114Z,45.95
2016-06-23T08:13:00.115Z,46.44
2016-06-23T08:14:00.110Z,48.18
2016-06-23T08:15:00.110Z,47.1
2016-06-23T08:16:00.122Z,47.3
2016-06-23T08:17:00.114Z,45.26
2016-06-23T08:18:00.115Z,46.12
2016-06-23T08:19:00.738Z,46.04
2016-06-23T08:20:00.123Z,45.55
2016-06-23T08:21:00.736Z,44.89
2016-06-23T08:22:00.723Z,44.32
2016-06-23T08:23:00.738Z,42.86
2016-06-23T08:24:00.761Z,42.69
2016-06-23T08:25:00.750Z,42.69
2016-06-23T08:26:00.140Z,41.93
2016-06-23T08:27:00.130Z,41.14
2016-06-23T08:28:00.753Z,40.94
2016-06-23T08:29:00.141Z,41.43
2016-06-23T08:30:00.135Z,41.53
2016-06-23T08:31:00.144Z,42.52
2016-06-23T08:32:00.751Z,41.75
2016-06-23T08:33:00.752Z,42.44
2016-06-23T08:34:00.143Z,42.61
2016-06-23T08:35:00.154Z,41.53
2016-06-23T08:36:00.150Z,41.53
2016-06-23T08:37:00.154Z,42.91
2016-06-23T08:38:00.783Z,41.45
2016-06-23T08:39:00.775Z,41.45
2016-06-23T08:40:00.895Z,41.47
2016-06-23T08:41:00.171Z,41.2
2016-06-23T08:42:00.169Z,40.43
2016-06-23T08:43:00.920Z,40.33
2016-06-23T08:44:00.782Z,39.36
2016-06-23T08:45:00.170Z,40.17
2016-06-23T08:46:00.169Z,39.68
2016-06-23T08:47:00.784Z,37.43
2016-06-23T08:48:00.792Z,38.79
2016-06-23T08:49:00.212Z,38.71
2016-06-23T08:50:00.194Z,37.51
2016-06-23T08:51:00.809Z,38.67
2016-06-23T08:52:00.219Z,38.67
2016-06-23T08:53:00.198Z,40.31
2016-06-23T08:54:00.825Z,40.11
2016-06-23T08:55:00.808Z,38.75
2016-06-23T08:56:00.822Z,40.72
2016-06-23T08:57:00.210Z,40.72
2016-06-23T08:58:00.215Z,41.78
2016-06-23T08:59:00.832Z,42.04
2016-06-23T09:00:00.854Z,42.99
2016-06-23T09:01:00.240Z,44.83
2016-06-23T09:02:00.217Z,43.06
2016-06-23T09:03:00.838Z,45.38
2016-06-23T09:04:00.230Z,45.48
2016-06-23T09:05:00.227Z,47.61
2016-06-23T09:06:00.238Z,47.27
2016-06-23T09:07:00.855Z,48.16
2016-06-23T09:08:00.241Z,47.25
2016-06-23T09:09:00.231Z,48.03
2016-06-23T09:10:00.852Z,45.59
2016-06-23T09:11:00.855Z,45.09
2016-06-23T09:12:00.243Z,45.53
2016-06-23T09:13:00.259Z,43.71
2016-06-23T09:14:00.846Z,43.63
2016-06-23T09:15:00.258Z,42.57
2016-06-23T09:16:00.863Z,41.98
2016-06-23T09:17:00.235Z,42.49
2016-06-23T09:18:00.853Z,40.92
2016-06-23T09:19:00.251Z,41.9
2016-06-23T09:20:00.872Z,41.33
2016-06-23T09:21:00.863Z,40.86
2016-06-23T09:22:00.888Z,40.56
2016-06-23T09:23:00.281Z,38.91
2016-06-23T09:24:00.278Z,39.39
2016-06-23T09:25:00.884Z,39.58
2016-06-23T09:26:00.885Z,39.79
2016-06-23T09:27:00.898Z,39.7
2016-06-23T09:28:00.281Z,38.73
2016-06-23T09:29:00.896Z,39.52
2016-06-23T09:30:00.892Z,38.93
2016-06-23T09:31:00.902Z,38.24
2016-06-23T09:32:00.297Z,37.96
2016-06-23T09:33:00.302Z,37.17
2016-06-23T09:34:00.909Z,37.47
2016-06-23T09:35:00.923Z,38.45
2016-06-23T09:36:00.922Z,39.17
2016-06-23T09:37:00.317Z,36.61
2016-06-23T09:38:00.929Z,36.04
2016-06-23T09:39:00.930Z,36.63
2016-06-23T09:40:00.933Z,36.63
2016-06-23T09:41:00.948Z,38.21
2016-06-23T09:42:00.946Z,36.55
2016-06-23T09:43:00.328Z,36.27
2016-06-23T09:44:00.333Z,34.89
2016-06-23T09:45:00.951Z,35.09
2016-06-23T09:46:00.354Z,34.89
2016-06-23T09:47:00.955Z,36.06
2016-06-23T09:48:00.347Z,36.44
2016-06-23T09:49:00.363Z,39.94
2016-06-23T09:50:00.352Z,37.74
2016-06-23T09:51:00.981Z,39.32
2016-06-23T09:52:00.380Z,40.19
2016-06-23T09:53:00.377Z,38.91
2016-06-23T09:54:00.378Z,41.17
2016-06-23T09:55:00.992Z,40.86
2016-06-23T09:56:01.003Z,40.37
2016-06-23T09:57:01.010Z,41.04
2016-06-23T09:58:01.004Z,41.9
2016-06-23T09:59:00.395Z,42.28
2016-06-23T10:00:00.408Z,41.88
2016-06-23T10:01:01.035Z,42.57
2016-06-23T10:02:00.414Z,42.1
2016-06-23T10:03:01.064Z,41.71
2016-06-23T10:04:00.410Z,41.71
2016-06-23T10:05:01.030Z,41.71
2016-06-23T10:06:01.033Z,40.35
2016-06-23T10:07:01.030Z,41.45
2016-06-23T10:08:00.423Z,40.29
2016-06-23T10:09:01.037Z,41.69
2016-06-23T10:10:00.634Z,37.76
2016-06-23T10:11:00.438Z,37.66
2016-06-23T10:12:00.453Z,37.41
2016-06-23T10:13:00.444Z,36.54
2016-06-23T10:14:01.063Z,35.94
2016-06-23T10:15:01.070Z,36.36
2016-06-23T10:16:01.053Z,36.75
2016-06-23T10:17:01.071Z,36.34
2016-06-23T10:18:00.459Z,37.3
2016-06-23T10:19:01.066Z,37.51
2016-06-23T10:20:00.467Z,37.6
2016-06-23T10:21:01.086Z,37.52
2016-06-23T10:22:00.481Z,36.16
2016-06-23T10:23:01.135Z,36.25
2016-06-23T10:24:00.505Z,37.46
2016-06-23T10:25:01.104Z,36.67
2016-06-23T10:26:00.498Z,36.19
2016-06-23T10:27:01.120Z,35.7
2016-06-23T10:28:00.523Z,35.02
2016-06-23T10:29:01.120Z,33.14
2016-06-23T10:30:00.513Z,32.95
2016-06-23T10:31:00.531Z,32.75
2016-06-23T10:32:01.179Z,34.61
2016-06-23T10:33:01.150Z,34.99
2016-06-23T10:34:01.161Z,35.21
2016-06-23T10:35:01.158Z,35.7
2016-06-23T10:36:00.555Z,34.53
2016-06-23T10:37:01.162Z,35.34
2016-06-23T10:38:01.170Z,33.95
2016-06-23T10:39:00.558Z,32.17
2016-06-23T10:40:01.171Z,34.25
2016-06-23T10:41:01.191Z,34.43
2016-06-23T10:42:01.211Z,35.21
2016-06-23T10:43:00.586Z,34.71
2016-06-23T10:44:00.592Z,35.5
2016-06-23T10:45:01.204Z,33.82
2016-06-23T10:46:01.214Z,35
2016-06-23T10:47:01.225Z,34.83
2016-06-23T10:48:00.615Z,35.02
2016-06-23T10:49:01.232Z,32.67
2016-06-23T10:50:01.254Z,33.56
2016-06-23T10:51:00.627Z,33.57
2016-06-23T10:52:01.245Z,32.68
2016-06-23T10:53:00.649Z,32.28
2016-06-23T10:54:00.655Z,32.76
2016-06-23T10:55:00.650Z,33.44
2016-06-23T10:56:01.271Z,32.04
2016-06-23T10:57:01.288Z,32.45
2016-06-23T10:58:00.682Z,33.54
2016-06-23T10:59:01.298Z,34.92
2016-06-23T11:00:01.298Z,32.17
2016-06-23T11:01:00.722Z,34.12
2016-06-23T11:02:00.690Z,33.73
2016-06-23T11:03:00.710Z,31.66
2016-06-23T11:04:01.330Z,33.16
2016-06-23T11:05:01.330Z,31.26
2016-06-23T11:06:00.718Z,34.15
2016-06-23T11:07:01.331Z,32.46
2016-06-23T11:08:00.725Z,32.18
2016-06-23T11:09:15.654Z,33.06
2016-06-23T11:10:01.389Z,34.61
2016-06-23T11:11:00.759Z,33.92
2016-06-23T11:12:01.374Z,33.51
2016-06-23T11:13:01.371Z,32.42
2016-06-23T11:14:00.781Z,32.32
2016-06-23T11:15:00.809Z,34.48
2016-06-23T11:16:00.774Z,34.36
2016-06-23T11:17:01.401Z,35.04
2016-06-23T11:18:01.403Z,35.05
2016-06-23T11:19:01.413Z,35.75
2016-06-23T11:20:00.808Z,34.66
2016-06-23T11:21:01.423Z,33.26
2016-06-23T11:22:01.437Z,34.64
2016-06-23T11:23:00.811Z,33.37
2016-06-23T11:24:01.428Z,33
2016-06-23T11:25:01.438Z,32.9
2016-06-23T11:26:01.450Z,33.09
2016-06-23T11:27:00.839Z,33.49
2016-06-23T11:28:00.847Z,33.37
2016-06-23T11:29:00.850Z,35.04
2016-06-23T11:30:01.470Z,35.04
2016-06-23T11:31:00.870Z,34.56
2016-06-23T11:32:01.487Z,34.78
2016-06-23T11:33:00.868Z,34.99
2016-06-23T11:34:00.884Z,33.59
2016-06-23T11:35:01.499Z,35.15
2016-06-23T11:36:01.495Z,37.68
2016-06-23T11:37:01.504Z,36.11
2016-06-23T11:38:00.907Z,37.27
2016-06-23T11:39:01.515Z,37.95
2016-06-23T11:40:00.905Z,37.51
2016-06-23T11:41:01.540Z,37.63
2016-06-23T11:42:01.529Z,38.1
2016-06-23T11:43:00.911Z,39.79
2016-06-23T11:44:01.535Z,38.99
2016-06-23T11:45:01.555Z,42.91
2016-06-23T11:46:01.547Z,41.25
2016-06-23T11:47:01.562Z,41.53
2016-06-23T11:48:01.546Z,41.24
2016-06-23T11:49:01.551Z,42.81
2016-06-23T11:50:00.942Z,40.25
2016-06-23T11:51:01.570Z,41.04
2016-06-23T11:52:00.971Z,41.63
2016-06-23T11:53:01.568Z,41.63
2016-06-23T11:54:01.575Z,39.48
2016-06-23T11:55:01.605Z,38.91
2016-06-23T11:56:00.965Z,38.99
2016-06-23T11:57:00.968Z,40.39
2016-06-23T11:58:00.958Z,40.27
2016-06-23T11:59:00.970Z,40.78
2016-06-23T12:00:00.982Z,40.88
2016-06-23T12:01:01.789Z,37.53
2016-06-23T12:02:01.586Z,38.54
2016-06-23T12:03:01.595Z,38.12
2016-06-23T12:04:01.021Z,39.52
2016-06-23T12:05:00.993Z,38.83
2016-06-23T12:06:01.622Z,40.47
2016-06-23T12:07:00.998Z,41.53
2016-06-23T12:08:01.611Z,41.71
2016-06-23T12:09:01.619Z,41.49
2016-06-23T12:10:01.202Z,42.35
2016-06-23T12:11:01.623Z,42.65
2016-06-23T12:12:01.621Z,42.82
2016-06-23T12:13:01.042Z,44.2
2016-06-23T12:14:01.002Z,44.96
2016-06-23T12:15:01.631Z,47.13
2016-06-23T12:16:01.019Z,47.86
2016-06-23T12:17:01.010Z,46.69
2016-06-23T12:18:01.658Z,47.08
2016-06-23T12:19:01.016Z,46.37
2016-06-23T12:20:01.026Z,46.47
2016-06-23T12:21:01.637Z,46.95
2016-06-23T12:22:01.642Z,44.7
2016-06-23T12:23:01.025Z,45.41
2016-06-23T12:24:01.031Z,46
2016-06-23T12:25:01.030Z,46.1
2016-06-23T12:26:01.040Z,46.98
2016-06-23T12:27:01.633Z,45.24
2016-06-23T12:28:01.018Z,45.9
2016-06-23T12:29:01.033Z,45.43
2016-06-23T12:30:01.034Z,45.31
2016-06-23T12:31:01.643Z,46.31
2016-06-23T12:32:01.036Z,45.55
2016-06-23T12:33:01.062Z,47.22
2016-06-23T12:34:01.640Z,46.44
2016-06-23T12:35:01.647Z,44.2
2016-06-23T12:36:01.642Z,45.28
2016-06-23T12:37:01.659Z,45.57
2016-06-23T12:38:01.042Z,46.48
2016-06-23T12:39:01.642Z,45.99
2016-06-23T12:40:01.038Z,46.17
2016-06-23T12:41:01.652Z,46.26
2016-06-23T12:42:01.034Z,45.75
2016-06-23T12:43:01.654Z,47.15
2016-06-23T12:44:01.652Z,45.65
2016-06-23T12:45:01.659Z,44.79
2016-06-23T12:46:01.667Z,45.6
2016-06-23T12:47:01.047Z,45.45
2016-06-23T12:48:01.711Z,42.71
2016-06-23T12:49:01.046Z,41.94
2016-06-23T12:50:01.671Z,41.94
2016-06-23T12:51:01.667Z,39.5
2016-06-23T12:52:01.661Z,39.5
2016-06-23T12:53:01.055Z,41.86
2016-06-23T12:54:01.047Z,42.36
2016-06-23T12:55:01.051Z,40.39
2016-06-23T12:56:01.671Z,41.59